sensor_id;sensor_type;location;lat;lon;timestamp;temperature;humidity
820;DHT22;392;48.838;2.322;2023-07-13T00:02:17;22.60;17.40
820;DHT22;392;48.838;2.322;2023-07-13T00:04:45;22.60;17.50
820;DHT22;392;48.838;2.322;2023-07-13T00:07:12;22.50;17.40
820;DHT22;392;48.838;2.322;2023-07-13T00:09:40;22.50;17.80
820;DHT22;392;48.838;2.322;2023-07-13T00:12:22;22.50;17.40
820;DHT22;392;48.838;2.322;2023-07-13T00:14:51;22.50;17.90
820;DHT22;392;48.838;2.322;2023-07-13T00:17:20;22.60;17.50
820;DHT22;392;48.838;2.322;2023-07-13T00:19:47;22.70;17.60
820;DHT22;392;48.838;2.322;2023-07-13T00:22:15;22.70;17.60
820;DHT22;392;48.838;2.322;2023-07-13T00:24:44;22.70;17.60
820;DHT22;392;48.838;2.322;2023-07-13T00:27:11;22.70;17.50
820;DHT22;392;48.838;2.322;2023-07-13T00:29:39;22.70;17.10
820;DHT22;392;48.838;2.322;2023-07-13T00:32:08;22.70;17.60
820;DHT22;392;48.838;2.322;2023-07-13T00:34:38;22.80;17.20
820;DHT22;392;48.838;2.322;2023-07-13T00:37:06;22.70;17.60
820;DHT22;392;48.838;2.322;2023-07-13T00:39:35;22.70;17.60
820;DHT22;392;48.838;2.322;2023-07-13T00:42:03;22.80;17.70
820;DHT22;392;48.838;2.322;2023-07-13T00:44:31;22.80;17.60
820;DHT22;392;48.838;2.322;2023-07-13T00:46:58;22.90;17.70
820;DHT22;392;48.838;2.322;2023-07-13T00:49:29;23.10;16.80
820;DHT22;392;48.838;2.322;2023-07-13T00:52:00;23.00;17.20
820;DHT22;392;48.838;2.322;2023-07-13T00:54:36;23.10;17.00
820;DHT22;392;48.838;2.322;2023-07-13T00:57:08;23.10;17.10
820;DHT22;392;48.838;2.322;2023-07-13T00:59:41;23.00;17.30
820;DHT22;392;48.838;2.322;2023-07-13T01:02:10;23.00;17.10
820;DHT22;392;48.838;2.322;2023-07-13T01:04:38;22.90;17.70
820;DHT22;392;48.838;2.322;2023-07-13T01:07:06;22.90;16.80
820;DHT22;392;48.838;2.322;2023-07-13T01:09:34;22.80;17.60
820;DHT22;392;48.838;2.322;2023-07-13T01:12:02;22.80;17.60
820;DHT22;392;48.838;2.322;2023-07-13T01:14:30;22.80;17.60
820;DHT22;392;48.838;2.322;2023-07-13T01:16:58;22.90;17.30
820;DHT22;392;48.838;2.322;2023-07-13T01:19:31;22.80;17.60
820;DHT22;392;48.838;2.322;2023-07-13T01:22:05;22.80;17.60
820;DHT22;392;48.838;2.322;2023-07-13T01:24:35;22.70;17.60
820;DHT22;392;48.838;2.322;2023-07-13T01:27:03;22.50;17.60
820;DHT22;392;48.838;2.322;2023-07-13T01:29:32;22.50;18.20
820;DHT22;392;48.838;2.322;2023-07-13T01:32:01;22.60;18.10
820;DHT22;392;48.838;2.322;2023-07-13T01:34:28;22.60;17.90
820;DHT22;392;48.838;2.322;2023-07-13T01:36:56;22.70;17.60
820;DHT22;392;48.838;2.322;2023-07-13T01:39:24;22.70;17.60
820;DHT22;392;48.838;2.322;2023-07-13T01:41:52;22.70;17.60
820;DHT22;392;48.838;2.322;2023-07-13T01:44:20;22.70;17.60
820;DHT22;392;48.838;2.322;2023-07-13T01:46:47;22.80;17.60
820;DHT22;392;48.838;2.322;2023-07-13T01:49:14;22.90;17.20
820;DHT22;392;48.838;2.322;2023-07-13T01:51:42;22.90;16.90
820;DHT22;392;48.838;2.322;2023-07-13T01:54:10;22.70;17.30
820;DHT22;392;48.838;2.322;2023-07-13T01:56:39;22.60;17.50
820;DHT22;392;48.838;2.322;2023-07-13T01:59:08;22.60;17.50
820;DHT22;392;48.838;2.322;2023-07-13T02:01:35;22.60;17.50
820;DHT22;392;48.838;2.322;2023-07-13T02:04:03;22.60;17.50
820;DHT22;392;48.838;2.322;2023-07-13T02:06:33;22.60;17.40
820;DHT22;392;48.838;2.322;2023-07-13T02:09:00;22.70;17.00
820;DHT22;392;48.838;2.322;2023-07-13T02:11:28;22.70;17.00
820;DHT22;392;48.838;2.322;2023-07-13T02:14:01;22.80;16.50
820;DHT22;392;48.838;2.322;2023-07-13T02:16:30;22.80;16.60
820;DHT22;392;48.838;2.322;2023-07-13T02:18:58;22.90;16.40
820;DHT22;392;48.838;2.322;2023-07-13T02:21:26;22.90;16.10
820;DHT22;392;48.838;2.322;2023-07-13T02:23:54;22.80;16.20
820;DHT22;392;48.838;2.322;2023-07-13T02:26:21;22.70;16.40
820;DHT22;392;48.838;2.322;2023-07-13T02:31:20;22.80;15.80
820;DHT22;392;48.838;2.322;2023-07-13T02:33:48;22.80;14.30
820;DHT22;392;48.838;2.322;2023-07-13T02:36:15;22.60;16.20
820;DHT22;392;48.838;2.322;2023-07-13T02:38:44;22.70;16.30
820;DHT22;392;48.838;2.322;2023-07-13T02:41:12;22.70;16.00
820;DHT22;392;48.838;2.322;2023-07-13T02:43:39;22.60;16.30
820;DHT22;392;48.838;2.322;2023-07-13T02:46:09;22.70;16.00
820;DHT22;392;48.838;2.322;2023-07-13T02:48:38;22.70;16.00
820;DHT22;392;48.838;2.322;2023-07-13T02:51:06;22.60;16.00
820;DHT22;392;48.838;2.322;2023-07-13T02:53:34;22.50;15.40
820;DHT22;392;48.838;2.322;2023-07-13T02:56:02;22.40;16.50
820;DHT22;392;48.838;2.322;2023-07-13T02:58:30;22.30;16.70
820;DHT22;392;48.838;2.322;2023-07-13T03:00:58;22.30;16.50
820;DHT22;392;48.838;2.322;2023-07-13T03:03:26;22.30;16.50
820;DHT22;392;48.838;2.322;2023-07-13T03:06:00;22.20;16.80
820;DHT22;392;48.838;2.322;2023-07-13T03:08:34;22.20;16.80
820;DHT22;392;48.838;2.322;2023-07-13T03:11:04;22.30;16.50
820;DHT22;392;48.838;2.322;2023-07-13T03:13:35;22.40;16.30
820;DHT22;392;48.838;2.322;2023-07-13T03:16:05;22.40;16.30
820;DHT22;392;48.838;2.322;2023-07-13T03:18:32;22.40;16.60
820;DHT22;392;48.838;2.322;2023-07-13T03:21:05;22.40;16.50
820;DHT22;392;48.838;2.322;2023-07-13T03:23:32;22.50;16.90
820;DHT22;392;48.838;2.322;2023-07-13T03:26:06;22.50;16.40
820;DHT22;392;48.838;2.322;2023-07-13T03:28:35;22.50;16.30
820;DHT22;392;48.838;2.322;2023-07-13T03:31:06;22.60;16.30
820;DHT22;392;48.838;2.322;2023-07-13T03:33:43;22.60;16.40
820;DHT22;392;48.838;2.322;2023-07-13T03:36:15;22.50;16.40
820;DHT22;392;48.838;2.322;2023-07-13T03:38:45;22.50;16.60
820;DHT22;392;48.838;2.322;2023-07-13T03:41:14;22.50;16.50
820;DHT22;392;48.838;2.322;2023-07-13T03:43:43;22.50;16.50
820;DHT22;392;48.838;2.322;2023-07-13T03:46:11;22.50;16.10
820;DHT22;392;48.838;2.322;2023-07-13T03:48:40;22.50;16.10
820;DHT22;392;48.838;2.322;2023-07-13T03:51:09;22.50;16.70
820;DHT22;392;48.838;2.322;2023-07-13T03:53:39;22.60;16.40
820;DHT22;392;48.838;2.322;2023-07-13T03:56:08;21.90;16.50
820;DHT22;392;48.838;2.322;2023-07-13T03:58:37;22.60;16.70
820;DHT22;392;48.838;2.322;2023-07-13T04:01:13;22.60;16.80
820;DHT22;392;48.838;2.322;2023-07-13T04:03:41;22.50;16.90
820;DHT22;392;48.838;2.322;2023-07-13T04:06:14;22.50;17.20
820;DHT22;392;48.838;2.322;2023-07-13T04:08:49;22.40;17.30
820;DHT22;392;48.838;2.322;2023-07-13T04:11:19;22.50;17.40
820;DHT22;392;48.838;2.322;2023-07-13T04:13:47;22.60;17.40
820;DHT22;392;48.838;2.322;2023-07-13T04:16:15;22.70;17.00
820;DHT22;392;48.838;2.322;2023-07-13T04:18:44;22.60;17.50
820;DHT22;392;48.838;2.322;2023-07-13T04:21:13;22.40;16.90
820;DHT22;392;48.838;2.322;2023-07-13T04:23:41;22.40;17.60
820;DHT22;392;48.838;2.322;2023-07-13T04:26:10;22.40;17.40
820;DHT22;392;48.838;2.322;2023-07-13T04:28:37;22.40;17.70
820;DHT22;392;48.838;2.322;2023-07-13T04:31:05;22.50;17.50
820;DHT22;392;48.838;2.322;2023-07-13T04:33:32;22.60;17.50
820;DHT22;392;48.838;2.322;2023-07-13T04:35:59;22.70;17.60
820;DHT22;392;48.838;2.322;2023-07-13T04:38:29;22.70;17.60
820;DHT22;392;48.838;2.322;2023-07-13T04:40:59;22.60;17.50
820;DHT22;392;48.838;2.322;2023-07-13T04:43:29;22.50;17.70
820;DHT22;392;48.838;2.322;2023-07-13T04:46:02;22.50;18.00
820;DHT22;392;48.838;2.322;2023-07-13T04:48:31;22.60;17.90
820;DHT22;392;48.838;2.322;2023-07-13T04:50:58;22.80;17.60
820;DHT22;392;48.838;2.322;2023-07-13T04:53:27;22.80;17.60
820;DHT22;392;48.838;2.322;2023-07-13T04:55:54;22.80;17.60
820;DHT22;392;48.838;2.322;2023-07-13T04:58:24;22.90;17.70
820;DHT22;392;48.838;2.322;2023-07-13T05:00:59;22.80;17.60
820;DHT22;392;48.838;2.322;2023-07-13T05:03:26;22.90;17.70
820;DHT22;392;48.838;2.322;2023-07-13T05:05:55;23.00;17.80
820;DHT22;392;48.838;2.322;2023-07-13T05:08:23;22.90;17.70
820;DHT22;392;48.838;2.322;2023-07-13T05:10:51;22.70;18.20
820;DHT22;392;48.838;2.322;2023-07-13T05:13:19;22.60;18.30
820;DHT22;392;48.838;2.322;2023-07-13T05:15:48;22.70;18.30
820;DHT22;392;48.838;2.322;2023-07-13T05:18:24;22.70;18.20
820;DHT22;392;48.838;2.322;2023-07-13T05:21:00;22.50;18.50
820;DHT22;392;48.838;2.322;2023-07-13T05:23:29;22.50;18.70
820;DHT22;392;48.838;2.322;2023-07-13T05:25:57;22.50;18.70
820;DHT22;392;48.838;2.322;2023-07-13T05:28:25;22.40;18.80
820;DHT22;392;48.838;2.322;2023-07-13T05:30:53;22.40;18.90
820;DHT22;392;48.838;2.322;2023-07-13T05:33:22;22.30;18.60
820;DHT22;392;48.838;2.322;2023-07-13T05:35:50;22.30;19.10
820;DHT22;392;48.838;2.322;2023-07-13T05:38:18;22.40;19.00
820;DHT22;392;48.838;2.322;2023-07-13T05:40:46;22.40;19.00
820;DHT22;392;48.838;2.322;2023-07-13T05:43:13;22.50;19.00
820;DHT22;392;48.838;2.322;2023-07-13T05:45:41;22.60;18.70
820;DHT22;392;48.838;2.322;2023-07-13T05:48:09;22.80;18.50
820;DHT22;392;48.838;2.322;2023-07-13T05:50:37;23.00;18.10
820;DHT22;392;48.838;2.322;2023-07-13T05:53:05;23.10;17.80
820;DHT22;392;48.838;2.322;2023-07-13T05:55:32;23.60;17.60
820;DHT22;392;48.838;2.322;2023-07-13T05:58:00;24.20;16.50
820;DHT22;392;48.838;2.322;2023-07-13T06:00:28;24.60;15.60
820;DHT22;392;48.838;2.322;2023-07-13T06:02:56;24.80;15.00
820;DHT22;392;48.838;2.322;2023-07-13T06:05:24;24.70;14.90
820;DHT22;392;48.838;2.322;2023-07-13T06:07:54;24.40;15.30
820;DHT22;392;48.838;2.322;2023-07-13T06:10:21;24.10;15.90
820;DHT22;392;48.838;2.322;2023-07-13T06:12:49;23.90;15.80
820;DHT22;392;48.838;2.322;2023-07-13T06:15:17;23.50;16.90
820;DHT22;392;48.838;2.322;2023-07-13T06:17:45;23.30;17.20
820;DHT22;392;48.838;2.322;2023-07-13T06:20:12;23.30;17.50
820;DHT22;392;48.838;2.322;2023-07-13T06:22:39;23.30;17.60
820;DHT22;392;48.838;2.322;2023-07-13T06:25:09;23.50;17.50
820;DHT22;392;48.838;2.322;2023-07-13T06:27:36;23.80;17.00
820;DHT22;392;48.838;2.322;2023-07-13T06:30:05;24.00;17.00
820;DHT22;392;48.838;2.322;2023-07-13T06:32:33;24.40;16.40
820;DHT22;392;48.838;2.322;2023-07-13T06:35:00;24.50;15.90
820;DHT22;392;48.838;2.322;2023-07-13T06:37:27;24.50;15.90
820;DHT22;392;48.838;2.322;2023-07-13T06:39:55;24.50;15.70
820;DHT22;392;48.838;2.322;2023-07-13T06:42:23;24.50;15.80
820;DHT22;392;48.838;2.322;2023-07-13T06:44:50;24.50;15.80
820;DHT22;392;48.838;2.322;2023-07-13T06:47:18;24.40;15.80
820;DHT22;392;48.838;2.322;2023-07-13T06:49:45;24.40;15.90
820;DHT22;392;48.838;2.322;2023-07-13T06:52:12;24.40;16.00
820;DHT22;392;48.838;2.322;2023-07-13T06:54:40;24.30;16.10
820;DHT22;392;48.838;2.322;2023-07-13T06:57:07;24.20;16.20
820;DHT22;392;48.838;2.322;2023-07-13T06:59:36;24.20;16.40
820;DHT22;392;48.838;2.322;2023-07-13T07:02:04;24.50;16.10
820;DHT22;392;48.838;2.322;2023-07-13T07:04:32;24.80;15.60
820;DHT22;392;48.838;2.322;2023-07-13T07:07:00;24.90;15.90
820;DHT22;392;48.838;2.322;2023-07-13T07:09:27;25.00;15.60
820;DHT22;392;48.838;2.322;2023-07-13T07:11:55;25.10;15.40
820;DHT22;392;48.838;2.322;2023-07-13T07:14:23;25.10;14.90
820;DHT22;392;48.838;2.322;2023-07-13T07:16:52;25.50;15.30
820;DHT22;392;48.838;2.322;2023-07-13T07:19:19;26.10;14.60
820;DHT22;392;48.838;2.322;2023-07-13T07:21:46;26.80;13.10
820;DHT22;392;48.838;2.322;2023-07-13T07:24:14;27.50;12.00
820;DHT22;392;48.838;2.322;2023-07-13T07:26:41;28.00;11.40
820;DHT22;392;48.838;2.322;2023-07-13T07:29:08;28.40;10.90
820;DHT22;392;48.838;2.322;2023-07-13T07:31:36;28.80;10.20
820;DHT22;392;48.838;2.322;2023-07-13T07:34:05;29.50;8.50
820;DHT22;392;48.838;2.322;2023-07-13T07:36:32;29.50;9.00
820;DHT22;392;48.838;2.322;2023-07-13T07:39:00;29.80;8.70
820;DHT22;392;48.838;2.322;2023-07-13T07:41:27;30.10;8.30
820;DHT22;392;48.838;2.322;2023-07-13T07:43:54;30.30;7.90
820;DHT22;392;48.838;2.322;2023-07-13T07:46:22;29.90;8.30
820;DHT22;392;48.838;2.322;2023-07-13T07:48:49;29.60;8.80
820;DHT22;392;48.838;2.322;2023-07-13T07:51:18;29.60;9.00
820;DHT22;392;48.838;2.322;2023-07-13T07:53:45;29.60;9.00
820;DHT22;392;48.838;2.322;2023-07-13T07:56:12;29.70;8.60
820;DHT22;392;48.838;2.322;2023-07-13T07:58:42;29.40;8.70
820;DHT22;392;48.838;2.322;2023-07-13T08:01:09;28.90;9.40
820;DHT22;392;48.838;2.322;2023-07-13T08:03:37;28.60;9.80
820;DHT22;392;48.838;2.322;2023-07-13T08:06:04;28.40;10.20
820;DHT22;392;48.838;2.322;2023-07-13T08:08:33;28.20;10.60
820;DHT22;392;48.838;2.322;2023-07-13T08:11:02;28.50;10.30
820;DHT22;392;48.838;2.322;2023-07-13T08:13:31;29.20;9.50
820;DHT22;392;48.838;2.322;2023-07-13T08:15:58;29.90;8.50
820;DHT22;392;48.838;2.322;2023-07-13T08:18:26;30.00;7.80
820;DHT22;392;48.838;2.322;2023-07-13T08:20:53;29.70;8.30
820;DHT22;392;48.838;2.322;2023-07-13T08:23:22;29.30;8.70
820;DHT22;392;48.838;2.322;2023-07-13T08:25:54;29.10;9.30
820;DHT22;392;48.838;2.322;2023-07-13T08:28:22;29.00;9.60
820;DHT22;392;48.838;2.322;2023-07-13T08:30:50;28.00;10.70
820;DHT22;392;48.838;2.322;2023-07-13T08:33:18;27.80;10.50
820;DHT22;392;48.838;2.322;2023-07-13T08:35:46;27.80;10.90
820;DHT22;392;48.838;2.322;2023-07-13T08:38:15;27.70;11.00
820;DHT22;392;48.838;2.322;2023-07-13T08:40:43;27.50;11.50
820;DHT22;392;48.838;2.322;2023-07-13T08:43:25;27.00;11.50
820;DHT22;392;48.838;2.322;2023-07-13T08:45:57;27.00;11.70
820;DHT22;392;48.838;2.322;2023-07-13T08:48:32;27.10;11.50
820;DHT22;392;48.838;2.322;2023-07-13T08:51:07;27.20;11.60
820;DHT22;392;48.838;2.322;2023-07-13T08:53:42;27.50;11.60
820;DHT22;392;48.838;2.322;2023-07-13T08:56:22;28.40;9.80
820;DHT22;392;48.838;2.322;2023-07-13T08:58:54;29.00;9.00
820;DHT22;392;48.838;2.322;2023-07-13T09:01:28;29.00;8.50
820;DHT22;392;48.838;2.322;2023-07-13T09:04:04;28.90;8.70
820;DHT22;392;48.838;2.322;2023-07-13T09:06:43;29.00;8.10
820;DHT22;392;48.838;2.322;2023-07-13T09:09:24;28.80;8.20
820;DHT22;392;48.838;2.322;2023-07-13T09:12:04;28.20;8.70
820;DHT22;392;48.838;2.322;2023-07-13T09:14:41;27.50;9.70
820;DHT22;392;48.838;2.322;2023-07-13T09:17:14;27.10;10.10
820;DHT22;392;48.838;2.322;2023-07-13T09:19:47;26.70;10.10
820;DHT22;392;48.838;2.322;2023-07-13T09:22:19;26.70;11.10
820;DHT22;392;48.838;2.322;2023-07-13T09:24:54;27.10;10.30
820;DHT22;392;48.838;2.322;2023-07-13T09:27:29;27.70;9.80
820;DHT22;392;48.838;2.322;2023-07-13T09:30:10;29.00;8.10
820;DHT22;392;48.838;2.322;2023-07-13T09:32:51;30.20;6.00
820;DHT22;392;48.838;2.322;2023-07-13T09:35:21;30.30;5.40
820;DHT22;392;48.838;2.322;2023-07-13T09:37:58;29.70;6.10
820;DHT22;392;48.838;2.322;2023-07-13T09:40:36;28.80;6.20
820;DHT22;392;48.838;2.322;2023-07-13T09:43:10;28.10;8.00
820;DHT22;392;48.838;2.322;2023-07-13T09:45:39;27.40;8.00
820;DHT22;392;48.838;2.322;2023-07-13T09:48:11;26.70;9.60
820;DHT22;392;48.838;2.322;2023-07-13T09:50:39;25.90;10.40
820;DHT22;392;48.838;2.322;2023-07-13T09:53:12;25.80;10.80
820;DHT22;392;48.838;2.322;2023-07-13T09:55:41;25.50;11.40
820;DHT22;392;48.838;2.322;2023-07-13T09:58:12;25.50;12.00
820;DHT22;392;48.838;2.322;2023-07-13T10:00:43;25.30;11.70
820;DHT22;392;48.838;2.322;2023-07-13T10:03:23;25.30;12.20
820;DHT22;392;48.838;2.322;2023-07-13T10:05:52;25.30;12.20
820;DHT22;392;48.838;2.322;2023-07-13T10:08:28;25.20;12.40
820;DHT22;392;48.838;2.322;2023-07-13T10:11:01;25.30;12.00
820;DHT22;392;48.838;2.322;2023-07-13T10:13:37;25.30;12.50
820;DHT22;392;48.838;2.322;2023-07-13T10:16:10;25.40;12.30
820;DHT22;392;48.838;2.322;2023-07-13T10:18:42;25.40;12.20
820;DHT22;392;48.838;2.322;2023-07-13T10:21:16;25.50;12.30
820;DHT22;392;48.838;2.322;2023-07-13T10:23:48;25.50;12.30
820;DHT22;392;48.838;2.322;2023-07-13T10:26:21;25.60;12.20
820;DHT22;392;48.838;2.322;2023-07-13T10:28:53;25.70;12.10
820;DHT22;392;48.838;2.322;2023-07-13T10:31:24;25.80;11.90
820;DHT22;392;48.838;2.322;2023-07-13T10:33:52;25.90;11.70
820;DHT22;392;48.838;2.322;2023-07-13T10:36:30;25.90;11.40
820;DHT22;392;48.838;2.322;2023-07-13T10:39:02;25.60;12.20
820;DHT22;392;48.838;2.322;2023-07-13T10:41:36;25.50;12.20
820;DHT22;392;48.838;2.322;2023-07-13T10:44:09;25.60;12.10
820;DHT22;392;48.838;2.322;2023-07-13T10:46:45;25.60;12.10
820;DHT22;392;48.838;2.322;2023-07-13T10:49:13;25.60;11.70
820;DHT22;392;48.838;2.322;2023-07-13T10:51:41;25.60;12.20
820;DHT22;392;48.838;2.322;2023-07-13T10:54:16;25.60;12.10
820;DHT22;392;48.838;2.322;2023-07-13T10:56:45;25.60;12.10
820;DHT22;392;48.838;2.322;2023-07-13T10:59:16;25.50;12.20
820;DHT22;392;48.838;2.322;2023-07-13T11:01:55;25.40;12.20
820;DHT22;392;48.838;2.322;2023-07-13T11:04:25;25.40;12.60
820;DHT22;392;48.838;2.322;2023-07-13T11:06:58;25.40;12.60
820;DHT22;392;48.838;2.322;2023-07-13T11:09:38;25.40;12.60
820;DHT22;392;48.838;2.322;2023-07-13T11:12:09;25.30;12.90
820;DHT22;392;48.838;2.322;2023-07-13T11:15:06;25.30;12.70
820;DHT22;392;48.838;2.322;2023-07-13T11:17:48;25.40;12.70
820;DHT22;392;48.838;2.322;2023-07-13T11:20:36;25.40;12.50
820;DHT22;392;48.838;2.322;2023-07-13T11:23:17;25.50;12.60
820;DHT22;392;48.838;2.322;2023-07-13T11:25:54;25.50;12.30
820;DHT22;392;48.838;2.322;2023-07-13T11:28:24;25.40;13.00
820;DHT22;392;48.838;2.322;2023-07-13T11:31:17;25.50;12.70
820;DHT22;392;48.838;2.322;2023-07-13T11:34:02;25.70;12.60
820;DHT22;392;48.838;2.322;2023-07-13T11:36:38;25.90;11.90
820;DHT22;392;48.838;2.322;2023-07-13T11:39:18;26.10;11.80
820;DHT22;392;48.838;2.322;2023-07-13T11:41:50;26.60;11.30
820;DHT22;392;48.838;2.322;2023-07-13T11:44:24;27.00;10.40
820;DHT22;392;48.838;2.322;2023-07-13T11:46:54;27.50;9.40
820;DHT22;392;48.838;2.322;2023-07-13T11:49:26;28.00;9.00
820;DHT22;392;48.838;2.322;2023-07-13T11:51:57;28.20;8.20
820;DHT22;392;48.838;2.322;2023-07-13T11:54:28;28.20;8.50
820;DHT22;392;48.838;2.322;2023-07-13T11:56:58;28.00;8.70
820;DHT22;392;48.838;2.322;2023-07-13T11:59:30;27.90;8.70
820;DHT22;392;48.838;2.322;2023-07-13T12:01:59;27.80;8.70
820;DHT22;392;48.838;2.322;2023-07-13T12:04:31;27.80;9.00
820;DHT22;392;48.838;2.322;2023-07-13T12:07:04;27.80;9.00
820;DHT22;392;48.838;2.322;2023-07-13T12:09:34;27.80;8.70
820;DHT22;392;48.838;2.322;2023-07-13T12:12:03;27.80;8.40
820;DHT22;392;48.838;2.322;2023-07-13T12:14:38;27.80;8.10
820;DHT22;392;48.838;2.322;2023-07-13T12:17:11;27.80;7.80
820;DHT22;392;48.838;2.322;2023-07-13T12:19:43;27.90;7.80
820;DHT22;392;48.838;2.322;2023-07-13T12:22:13;27.70;8.00
820;DHT22;392;48.838;2.322;2023-07-13T12:24:41;27.50;8.10
820;DHT22;392;48.838;2.322;2023-07-13T12:27:19;27.20;8.60
820;DHT22;392;48.838;2.322;2023-07-13T12:29:52;26.70;8.80
820;DHT22;392;48.838;2.322;2023-07-13T12:32:20;26.50;9.00
820;DHT22;392;48.838;2.322;2023-07-13T12:34:55;26.60;8.90
820;DHT22;392;48.838;2.322;2023-07-13T12:37:25;26.70;8.60
820;DHT22;392;48.838;2.322;2023-07-13T12:39:54;26.80;8.30
820;DHT22;392;48.838;2.322;2023-07-13T12:42:24;26.70;7.60
820;DHT22;392;48.838;2.322;2023-07-13T12:44:54;26.80;8.20
820;DHT22;392;48.838;2.322;2023-07-13T12:47:23;26.90;8.00
820;DHT22;392;48.838;2.322;2023-07-13T12:49:56;27.20;7.20
820;DHT22;392;48.838;2.322;2023-07-13T12:52:29;27.40;6.30
820;DHT22;392;48.838;2.322;2023-07-13T12:55:03;27.50;6.40
820;DHT22;392;48.838;2.322;2023-07-13T12:57:32;27.50;6.20
820;DHT22;392;48.838;2.322;2023-07-13T13:00:00;27.40;5.70
820;DHT22;392;48.838;2.322;2023-07-13T13:02:33;27.30;6.20
820;DHT22;392;48.838;2.322;2023-07-13T13:05:03;27.30;6.10
820;DHT22;392;48.838;2.322;2023-07-13T13:07:32;27.30;4.10
820;DHT22;392;48.838;2.322;2023-07-13T13:10:00;27.30;6.00
820;DHT22;392;48.838;2.322;2023-07-13T13:12:27;27.30;5.90
820;DHT22;392;48.838;2.322;2023-07-13T13:14:54;27.30;5.90
820;DHT22;392;48.838;2.322;2023-07-13T13:17:24;27.20;5.00
820;DHT22;392;48.838;2.322;2023-07-13T13:19:54;27.10;5.60
820;DHT22;392;48.838;2.322;2023-07-13T13:22:23;26.90;4.80
820;DHT22;392;48.838;2.322;2023-07-13T13:24:51;26.70;6.80
820;DHT22;392;48.838;2.322;2023-07-13T13:27:21;26.70;6.80
820;DHT22;392;48.838;2.322;2023-07-13T13:29:50;26.80;6.50
820;DHT22;392;48.838;2.322;2023-07-13T13:32:18;26.90;6.30
820;DHT22;392;48.838;2.322;2023-07-13T13:34:46;27.20;6.00
820;DHT22;392;48.838;2.322;2023-07-13T13:37:18;27.40;5.20
820;DHT22;392;48.838;2.322;2023-07-13T13:39:48;27.50;5.60
820;DHT22;392;48.838;2.322;2023-07-13T13:42:17;27.40;5.60
820;DHT22;392;48.838;2.322;2023-07-13T13:44:46;27.40;5.70
820;DHT22;392;48.838;2.322;2023-07-13T13:47:27;27.40;5.70
820;DHT22;392;48.838;2.322;2023-07-13T13:49:57;27.50;5.50
820;DHT22;392;48.838;2.322;2023-07-13T13:52:24;27.70;5.20
820;DHT22;392;48.838;2.322;2023-07-13T13:54:53;27.80;4.90
820;DHT22;392;48.838;2.322;2023-07-13T13:57:22;27.90;4.80
820;DHT22;392;48.838;2.322;2023-07-13T13:59:50;28.10;4.90
820;DHT22;392;48.838;2.322;2023-07-13T14:02:27;28.20;4.40
820;DHT22;392;48.838;2.322;2023-07-13T14:04:59;28.20;4.40
820;DHT22;392;48.838;2.322;2023-07-13T14:07:28;28.10;4.30
820;DHT22;392;48.838;2.322;2023-07-13T14:09:59;28.00;4.40
820;DHT22;392;48.838;2.322;2023-07-13T14:12:28;28.10;3.90
820;DHT22;392;48.838;2.322;2023-07-13T14:14:56;27.90;4.60
820;DHT22;392;48.838;2.322;2023-07-13T14:17:25;27.60;3.80
820;DHT22;392;48.838;2.322;2023-07-13T14:19:54;27.30;5.10
820;DHT22;392;48.838;2.322;2023-07-13T14:22:24;27.20;5.60
820;DHT22;392;48.838;2.322;2023-07-13T14:24:52;27.10;5.20
820;DHT22;392;48.838;2.322;2023-07-13T14:27:23;27.10;5.60
820;DHT22;392;48.838;2.322;2023-07-13T14:29:51;27.20;5.70
820;DHT22;392;48.838;2.322;2023-07-13T14:32:19;27.30;5.70
820;DHT22;392;48.838;2.322;2023-07-13T14:34:46;27.50;4.50
820;DHT22;392;48.838;2.322;2023-07-13T14:37:14;27.60;5.00
820;DHT22;392;48.838;2.322;2023-07-13T14:39:44;27.50;5.40
820;DHT22;392;48.838;2.322;2023-07-13T14:42:11;27.40;5.50
820;DHT22;392;48.838;2.322;2023-07-13T14:44:40;27.20;5.50
820;DHT22;392;48.838;2.322;2023-07-13T14:47:08;27.20;5.60
820;DHT22;392;48.838;2.322;2023-07-13T14:49:39;27.10;5.90
820;DHT22;392;48.838;2.322;2023-07-13T14:52:12;27.10;5.90
820;DHT22;392;48.838;2.322;2023-07-13T14:54:40;27.00;6.10
820;DHT22;392;48.838;2.322;2023-07-13T14:57:10;27.00;6.00
820;DHT22;392;48.838;2.322;2023-07-13T14:59:39;26.90;6.30
820;DHT22;392;48.838;2.322;2023-07-13T15:02:15;26.90;6.30
820;DHT22;392;48.838;2.322;2023-07-13T15:04:43;27.00;6.40
820;DHT22;392;48.838;2.322;2023-07-13T15:07:11;26.90;6.30
820;DHT22;392;48.838;2.322;2023-07-13T15:09:39;27.00;6.30
820;DHT22;392;48.838;2.322;2023-07-13T15:12:07;27.10;6.10
820;DHT22;392;48.838;2.322;2023-07-13T15:14:34;27.00;6.10
820;DHT22;392;48.838;2.322;2023-07-13T15:17:03;26.90;6.20
820;DHT22;392;48.838;2.322;2023-07-13T15:19:31;26.80;6.40
820;DHT22;392;48.838;2.322;2023-07-13T15:21:59;26.80;6.50
820;DHT22;392;48.838;2.322;2023-07-13T15:24:28;26.70;6.60
820;DHT22;392;48.838;2.322;2023-07-13T15:26:56;26.60;6.80
820;DHT22;392;48.838;2.322;2023-07-13T15:29:24;26.60;6.80
820;DHT22;392;48.838;2.322;2023-07-13T15:31:51;26.60;6.80
820;DHT22;392;48.838;2.322;2023-07-13T15:34:24;26.70;6.80
820;DHT22;392;48.838;2.322;2023-07-13T15:36:52;26.70;6.60
820;DHT22;392;48.838;2.322;2023-07-13T15:39:19;26.80;6.70
820;DHT22;392;48.838;2.322;2023-07-13T15:41:46;26.80;6.80
820;DHT22;392;48.838;2.322;2023-07-13T15:44:23;26.80;6.40
820;DHT22;392;48.838;2.322;2023-07-13T15:46:53;26.70;6.80
820;DHT22;392;48.838;2.322;2023-07-13T15:49:22;26.70;7.00
820;DHT22;392;48.838;2.322;2023-07-13T15:51:50;26.80;6.90
820;DHT22;392;48.838;2.322;2023-07-13T15:54:18;26.90;6.90
820;DHT22;392;48.838;2.322;2023-07-13T15:56:51;27.00;7.00
820;DHT22;392;48.838;2.322;2023-07-13T15:59:20;27.00;7.00
820;DHT22;392;48.838;2.322;2023-07-13T16:01:47;26.90;6.90
820;DHT22;392;48.838;2.322;2023-07-13T16:04:15;26.90;7.00
820;DHT22;392;48.838;2.322;2023-07-13T16:06:47;26.60;7.40
820;DHT22;392;48.838;2.322;2023-07-13T16:09:19;26.50;7.60
820;DHT22;392;48.838;2.322;2023-07-13T16:11:47;26.40;7.70
820;DHT22;392;48.838;2.322;2023-07-13T16:14:16;26.30;7.70
820;DHT22;392;48.838;2.322;2023-07-13T16:16:44;26.20;8.00
820;DHT22;392;48.838;2.322;2023-07-13T16:19:11;26.10;8.20
820;DHT22;392;48.838;2.322;2023-07-13T16:21:44;26.10;8.30
820;DHT22;392;48.838;2.322;2023-07-13T16:24:18;26.10;8.00
820;DHT22;392;48.838;2.322;2023-07-13T16:26:47;26.20;8.60
820;DHT22;392;48.838;2.322;2023-07-13T16:29:17;26.20;7.80
820;DHT22;392;48.838;2.322;2023-07-13T16:31:56;26.30;8.10
820;DHT22;392;48.838;2.322;2023-07-13T16:34:27;26.40;7.90
820;DHT22;392;48.838;2.322;2023-07-13T16:36:56;26.40;8.00
820;DHT22;392;48.838;2.322;2023-07-13T16:39:25;26.40;8.00
820;DHT22;392;48.838;2.322;2023-07-13T16:41:54;26.40;8.00
820;DHT22;392;48.838;2.322;2023-07-13T16:44:26;26.30;8.10
820;DHT22;392;48.838;2.322;2023-07-13T16:46:54;26.30;7.70
820;DHT22;392;48.838;2.322;2023-07-13T16:49:28;26.20;8.10
820;DHT22;392;48.838;2.322;2023-07-13T16:51:59;26.20;8.20
820;DHT22;392;48.838;2.322;2023-07-13T16:54:29;26.20;8.10
820;DHT22;392;48.838;2.322;2023-07-13T16:56:59;26.20;8.20
820;DHT22;392;48.838;2.322;2023-07-13T16:59:30;26.20;8.10
820;DHT22;392;48.838;2.322;2023-07-13T17:01:59;26.20;8.10
820;DHT22;392;48.838;2.322;2023-07-13T17:04:29;26.10;8.10